sensor_id;sensor_type;location;lat;lon;timestamp;temperature;humidity
20795;DHT22;28087;-33.874;151.240;2024-03-25T00:42:05;28.60;55.60
20795;DHT22;28087;-33.874;151.240;2024-03-25T00:45:02;28.90;53.70
20795;DHT22;28087;-33.874;151.240;2024-03-25T00:48:02;29.00;53.50
20795;DHT22;28087;-33.874;151.240;2024-03-25T00:50:59;29.20;52.80
20795;DHT22;28087;-33.874;151.240;2024-03-25T00:54:04;29.20;51.30
20795;DHT22;28087;-33.874;151.240;2024-03-25T00:57:11;29.30;52.10
20795;DHT22;28087;-33.874;151.240;2024-03-25T01:00:17;29.40;51.30
20795;DHT22;28087;-33.874;151.240;2024-03-25T01:03:20;29.70;49.80
20795;DHT22;28087;-33.874;151.240;2024-03-25T01:06:25;29.70;49.10
20795;DHT22;28087;-33.874;151.240;2024-03-25T01:09:28;29.90;48.30
20795;DHT22;28087;-33.874;151.240;2024-03-25T01:12:35;30.00;44.60
20795;DHT22;28087;-33.874;151.240;2024-03-25T01:15:38;30.10;42.30
20795;DHT22;28087;-33.874;151.240;2024-03-25T01:18:42;30.10;42.50
20795;DHT22;28087;-33.874;151.240;2024-03-25T01:21:46;30.30;43.20
20795;DHT22;28087;-33.874;151.240;2024-03-25T01:24:50;30.50;42.80
20795;DHT22;28087;-33.874;151.240;2024-03-25T01:27:55;30.70;41.40
20795;DHT22;28087;-33.874;151.240;2024-03-25T01:30:59;30.80;43.10
20795;DHT22;28087;-33.874;151.240;2024-03-25T01:34:02;30.90;42.40
20795;DHT22;28087;-33.874;151.240;2024-03-25T01:37:06;30.80;40.00
20795;DHT22;28087;-33.874;151.240;2024-03-25T01:40:11;30.90;40.70
20795;DHT22;28087;-33.874;151.240;2024-03-25T01:43:18;30.70;41.70
20795;DHT22;28087;-33.874;151.240;2024-03-25T01:46:22;30.90;42.20
20795;DHT22;28087;-33.874;151.240;2024-03-25T01:49:26;31.10;42.30
20795;DHT22;28087;-33.874;151.240;2024-03-25T01:52:31;31.30;42.50
20795;DHT22;28087;-33.874;151.240;2024-03-25T01:55:36;31.50;41.80
20795;DHT22;28087;-33.874;151.240;2024-03-25T01:58:42;31.10;42.70
20795;DHT22;28087;-33.874;151.240;2024-03-25T02:01:47;30.70;44.70
20795;DHT22;28087;-33.874;151.240;2024-03-25T02:04:52;31.00;45.10
20795;DHT22;28087;-33.874;151.240;2024-03-25T02:07:59;31.20;45.70
20795;DHT22;28087;-33.874;151.240;2024-03-25T02:11:05;31.20;46.30
20795;DHT22;28087;-33.874;151.240;2024-03-25T02:14:10;31.00;47.40
20795;DHT22;28087;-33.874;151.240;2024-03-25T02:17:15;31.10;47.70
20795;DHT22;28087;-33.874;151.240;2024-03-25T02:20:19;31.20;48.20
20795;DHT22;28087;-33.874;151.240;2024-03-25T02:23:24;31.00;49.50
20795;DHT22;28087;-33.874;151.240;2024-03-25T02:26:32;31.00;49.50
20795;DHT22;28087;-33.874;151.240;2024-03-25T02:29:37;30.90;51.00
20795;DHT22;28087;-33.874;151.240;2024-03-25T02:32:40;31.00;51.50
20795;DHT22;28087;-33.874;151.240;2024-03-25T02:35:45;30.80;52.20
20795;DHT22;28087;-33.874;151.240;2024-03-25T02:38:49;30.80;51.80
20795;DHT22;28087;-33.874;151.240;2024-03-25T02:41:56;30.80;51.90
20795;DHT22;28087;-33.874;151.240;2024-03-25T02:44:59;30.80;51.70
20795;DHT22;28087;-33.874;151.240;2024-03-25T02:48:04;30.70;51.90
20795;DHT22;28087;-33.874;151.240;2024-03-25T02:51:09;30.90;51.50
20795;DHT22;28087;-33.874;151.240;2024-03-25T02:54:13;30.60;52.20
20795;DHT22;28087;-33.874;151.240;2024-03-25T02:57:20;30.50;52.50
20795;DHT22;28087;-33.874;151.240;2024-03-25T03:00:23;30.60;52.60
20795;DHT22;28087;-33.874;151.240;2024-03-25T03:03:27;30.40;53.70
20795;DHT22;28087;-33.874;151.240;2024-03-25T03:06:31;30.60;52.70
20795;DHT22;28087;-33.874;151.240;2024-03-25T03:09:35;30.50;51.00
20795;DHT22;28087;-33.874;151.240;2024-03-25T03:12:42;30.50;50.40
20795;DHT22;28087;-33.874;151.240;2024-03-25T03:15:47;30.50;49.00
20795;DHT22;28087;-33.874;151.240;2024-03-25T03:18:51;30.70;48.00
20795;DHT22;28087;-33.874;151.240;2024-03-25T03:21:56;30.60;45.70
20795;DHT22;28087;-33.874;151.240;2024-03-25T03:25:03;30.70;46.40
20795;DHT22;28087;-33.874;151.240;2024-03-25T03:28:09;30.80;46.90
20795;DHT22;28087;-33.874;151.240;2024-03-25T03:31:09;30.90;48.60
20795;DHT22;28087;-33.874;151.240;2024-03-25T03:34:15;31.00;49.90
20795;DHT22;28087;-33.874;151.240;2024-03-25T03:37:21;31.00;48.90
20795;DHT22;28087;-33.874;151.240;2024-03-25T03:40:25;30.80;48.90
20795;DHT22;28087;-33.874;151.240;2024-03-25T03:43:30;30.80;48.50
20795;DHT22;28087;-33.874;151.240;2024-03-25T03:46:35;30.90;49.60
20795;DHT22;28087;-33.874;151.240;2024-03-25T03:49:39;30.70;50.40
20795;DHT22;28087;-33.874;151.240;2024-03-25T03:52:44;30.60;50.30
20795;DHT22;28087;-33.874;151.240;2024-03-25T03:55:54;30.40;50.90
20795;DHT22;28087;-33.874;151.240;2024-03-25T03:59:03;30.50;51.20
20795;DHT22;28087;-33.874;151.240;2024-03-25T04:02:09;30.40;51.90
20795;DHT22;28087;-33.874;151.240;2024-03-25T04:05:12;30.60;52.10
20795;DHT22;28087;-33.874;151.240;2024-03-25T04:08:16;30.10;53.10
20795;DHT22;28087;-33.874;151.240;2024-03-25T04:11:19;30.00;54.30
20795;DHT22;28087;-33.874;151.240;2024-03-25T04:14:26;30.00;55.10
20795;DHT22;28087;-33.874;151.240;2024-03-25T04:17:30;29.90;56.20
20795;DHT22;28087;-33.874;151.240;2024-03-25T04:20:38;29.50;57.20
20795;DHT22;28087;-33.874;151.240;2024-03-25T04:23:41;29.20;57.80
20795;DHT22;28087;-33.874;151.240;2024-03-25T04:26:47;29.20;57.50
20795;DHT22;28087;-33.874;151.240;2024-03-25T04:29:53;29.10;58.20
20795;DHT22;28087;-33.874;151.240;2024-03-25T04:32:58;29.10;58.80
20795;DHT22;28087;-33.874;151.240;2024-03-25T04:36:05;29.20;58.00
20795;DHT22;28087;-33.874;151.240;2024-03-25T04:39:09;29.20;56.30
20795;DHT22;28087;-33.874;151.240;2024-03-25T04:42:11;29.30;56.30
20795;DHT22;28087;-33.874;151.240;2024-03-25T04:45:18;29.20;55.60
20795;DHT22;28087;-33.874;151.240;2024-03-25T04:48:21;29.10;55.80
20795;DHT22;28087;-33.874;151.240;2024-03-25T04:51:23;28.90;52.80
20795;DHT22;28087;-33.874;151.240;2024-03-25T04:54:26;28.80;53.00
20795;DHT22;28087;-33.874;151.240;2024-03-25T04:57:28;28.80;52.60
20795;DHT22;28087;-33.874;151.240;2024-03-25T05:00:33;28.80;53.00
20795;DHT22;28087;-33.874;151.240;2024-03-25T05:03:35;28.70;53.60
20795;DHT22;28087;-33.874;151.240;2024-03-25T05:06:37;28.50;55.10
20795;DHT22;28087;-33.874;151.240;2024-03-25T05:09:39;28.40;55.20
20795;DHT22;28087;-33.874;151.240;2024-03-25T05:13:03;28.20;55.00
20795;DHT22;28087;-33.874;151.240;2024-03-25T05:16:08;28.10;55.90
20795;DHT22;28087;-33.874;151.240;2024-03-25T05:19:10;28.00;56.60
20795;DHT22;28087;-33.874;151.240;2024-03-25T05:22:12;27.90;56.70
20795;DHT22;28087;-33.874;151.240;2024-03-25T05:25:15;27.80;56.50
20795;DHT22;28087;-33.874;151.240;2024-03-25T05:28:16;27.70;56.50
20795;DHT22;28087;-33.874;151.240;2024-03-25T05:31:20;27.60;57.00
20795;DHT22;28087;-33.874;151.240;2024-03-25T05:34:24;27.50;58.10
20795;DHT22;28087;-33.874;151.240;2024-03-25T13:58:32;23.40;80.10
20795;DHT22;28087;-33.874;151.240;2024-03-25T14:01:34;23.30;79.60
20795;DHT22;28087;-33.874;151.240;2024-03-25T14:04:37;23.40;79.30
20795;DHT22;28087;-33.874;151.240;2024-03-25T14:07:39;23.40;79.20
20795;DHT22;28087;-33.874;151.240;2024-03-25T14:10:44;23.40;79.10
20795;DHT22;28087;-33.874;151.240;2024-03-25T14:13:46;23.30;79.40
20795;DHT22;28087;-33.874;151.240;2024-03-25T14:16:49;23.40;79.50
20795;DHT22;28087;-33.874;151.240;2024-03-25T14:19:55;23.30;79.70
20795;DHT22;28087;-33.874;151.240;2024-03-25T14:22:59;23.30;79.90
20795;DHT22;28087;-33.874;151.240;2024-03-25T14:26:03;23.30;80.00
20795;DHT22;28087;-33.874;151.240;2024-03-25T14:29:05;23.20;80.20
20795;DHT22;28087;-33.874;151.240;2024-03-25T14:32:08;23.30;80.20
20795;DHT22;28087;-33.874;151.240;2024-03-25T14:35:10;23.20;80.20
20795;DHT22;28087;-33.874;151.240;2024-03-25T14:38:12;23.30;80.20
20795;DHT22;28087;-33.874;151.240;2024-03-25T14:41:22;23.20;80.20
20795;DHT22;28087;-33.874;151.240;2024-03-25T14:44:24;23.20;80.30
20795;DHT22;28087;-33.874;151.240;2024-03-25T14:47:27;23.30;80.30
20795;DHT22;28087;-33.874;151.240;2024-03-25T14:50:29;23.20;80.20
20795;DHT22;28087;-33.874;151.240;2024-03-25T14:53:31;23.30;80.20
20795;DHT22;28087;-33.874;151.240;2024-03-25T14:56:36;23.20;80.20
20795;DHT22;28087;-33.874;151.240;2024-03-25T14:59:38;23.10;80.20
20795;DHT22;28087;-33.874;151.240;2024-03-25T15:02:41;23.20;80.30
20795;DHT22;28087;-33.874;151.240;2024-03-25T15:05:47;23.20;80.30
20795;DHT22;28087;-33.874;151.240;2024-03-25T15:08:50;23.20;80.30
20795;DHT22;28087;-33.874;151.240;2024-03-25T15:11:58;23.10;80.30
20795;DHT22;28087;-33.874;151.240;2024-03-25T15:15:08;23.20;80.30
20795;DHT22;28087;-33.874;151.240;2024-03-25T15:18:20;23.20;80.30
20795;DHT22;28087;-33.874;151.240;2024-03-25T15:21:24;23.00;80.30
20795;DHT22;28087;-33.874;151.240;2024-03-25T15:24:26;23.10;80.30
20795;DHT22;28087;-33.874;151.240;2024-03-25T22:31:13;24.40;73.40
20795;DHT22;28087;-33.874;151.240;2024-03-25T22:34:17;24.60;72.40
20795;DHT22;28087;-33.874;151.240;2024-03-25T22:37:19;24.80;71.30
20795;DHT22;28087;-33.874;151.240;2024-03-25T22:40:21;24.70;71.30
20795;DHT22;28087;-33.874;151.240;2024-03-25T22:43:24;24.70;70.50
20795;DHT22;28087;-33.874;151.240;2024-03-25T22:46:26;24.40;70.70
20795;DHT22;28087;-33.874;151.240;2024-03-25T22:49:30;24.50;70.90
20795;DHT22;28087;-33.874;151.240;2024-03-25T22:52:33;24.80;70.40
20795;DHT22;28087;-33.874;151.240;2024-03-25T22:55:35;25.00;70.70
